RCH574 ETAD-LLBG
Flight info
| Callsign | RCH574 |
|---|---|
| Flight time | N/A |
| Altitude | 35000 |
| Route | ROPUV L607 UBIDU L984 SULUS Z650 VEMUT DCT PEPIK DCT BERVA DCT ERGOM DCT TEGRI DCT OSTOV DCT NIKTI/N0480F370 DCT AKINA DCT VAXOS UN134 VANZA DCT PIKOG L609 ZUKKO |
| Aircraft | MD11/H-SDE1E2E3FGHIJ2J3J4J5M1RWXY/LB1D1 |
Departure
| Time | 2026-05-06 09:22 |
|---|---|
| Airport | Spangdahlem Air Base (ETAD) |
Arrival
| Time | N/A |
|---|---|
| Airport | Ben Gurion International Airport (LLBG) |
| Time | Latitude | Longitude | Altitude | Speed | Heading |
|---|---|---|---|---|---|
| 2026-05-06 09:05 | 49.97723 | 6.70456 | 1205 ft | 0 kts | 315° |
| 2026-05-06 09:18 | 49.97724 | 6.70455 | 1205 ft | 1 kts | 315° |
| 2026-05-06 09:18 | 49.97746 | 6.70421 | 1205 ft | 8 kts | 314° |
| 2026-05-06 09:18 | 49.97807 | 6.70386 | 1205 ft | 10 kts | 21° |
| 2026-05-06 09:18 | 49.97874 | 6.70480 | 1205 ft | 16 kts | 45° |
| 2026-05-06 09:19 | 49.97971 | 6.70628 | 1205 ft | 23 kts | 44° |
| 2026-05-06 09:19 | 49.98098 | 6.70818 | 1205 ft | 28 kts | 45° |
| 2026-05-06 09:19 | 49.98247 | 6.71051 | 1205 ft | 33 kts | 45° |
| 2026-05-06 09:19 | 49.98402 | 6.71274 | 1205 ft | 24 kts | 37° |
| 2026-05-06 09:20 | 49.98520 | 6.71406 | 1205 ft | 19 kts | 24° |
| 2026-05-06 09:20 | 49.98603 | 6.71353 | 1205 ft | 11 kts | 299° |
| 2026-05-06 09:20 | 49.98606 | 6.71302 | 1205 ft | 2 kts | 254° |
| 2026-05-06 09:20 | 49.98599 | 6.71290 | 1205 ft | 2 kts | 226° |
| 2026-05-06 09:21 | 49.98560 | 6.71231 | 1204 ft | 21 kts | 224° |
| 2026-05-06 09:21 | 49.98268 | 6.70787 | 1207 ft | 97 kts | 225° |
| 2026-05-06 09:21 | 49.97620 | 6.69794 | 1208 ft | 160 kts | 224° |
| 2026-05-06 09:21 | 49.96745 | 6.68459 | 1458 ft | 181 kts | 227° |
| 2026-05-06 09:22 | 49.95864 | 6.67130 | 2300 ft | 174 kts | 224° |
| 2026-05-06 09:22 | 49.94872 | 6.66010 | 2982 ft | 177 kts | 214° |
| 2026-05-06 09:22 | 49.93819 | 6.65018 | 3725 ft | 176 kts | 213° |
| 2026-05-06 09:22 | 49.92768 | 6.64045 | 4429 ft | 178 kts | 212° |
| 2026-05-06 09:23 | 49.91613 | 6.62980 | 4621 ft | 210 kts | 212° |
| 2026-05-06 09:23 | 49.90262 | 6.61749 | 4797 ft | 241 kts | 212° |
| 2026-05-06 09:23 | 49.88744 | 6.60362 | 5113 ft | 261 kts | 212° |
| 2026-05-06 09:23 | 49.87175 | 6.58935 | 6030 ft | 263 kts | 211° |
| 2026-05-06 09:24 | 49.85586 | 6.57492 | 6959 ft | 267 kts | 212° |
| 2026-05-06 09:24 | 49.83973 | 6.56029 | 7816 ft | 270 kts | 212° |
| 2026-05-06 09:24 | 49.82337 | 6.54546 | 8660 ft | 274 kts | 212° |
| 2026-05-06 09:24 | 49.80677 | 6.53044 | 9483 ft | 278 kts | 211° |
| 2026-05-06 09:25 | 49.78993 | 6.51520 | 10258 ft | 285 kts | 211° |
| 2026-05-06 09:25 | 49.77201 | 6.49902 | 10406 ft | 312 kts | 211° |
| 2026-05-06 09:25 | 49.75299 | 6.48017 | 10544 ft | 337 kts | 220° |
| 2026-05-06 09:25 | 49.73850 | 6.45125 | 11146 ft | 347 kts | 245° |
| 2026-05-06 09:26 | 49.73361 | 6.41460 | 11922 ft | 356 kts | 269° |
| 2026-05-06 09:26 | 49.73920 | 6.37703 | 12650 ft | 367 kts | 293° |
| 2026-05-06 09:26 | 49.75453 | 6.34523 | 13380 ft | 377 kts | 316° |
| 2026-05-06 09:26 | 49.77703 | 6.32369 | 14059 ft | 387 kts | 336° |
| 2026-05-06 09:27 | 49.80342 | 6.31405 | 14736 ft | 395 kts | 354° |
| 2026-05-06 09:27 | 49.83100 | 6.31705 | 15337 ft | 402 kts | 10° |
| 2026-05-06 09:27 | 49.85824 | 6.32803 | 15939 ft | 407 kts | 15° |
| 2026-05-06 09:27 | 49.88545 | 6.34102 | 16511 ft | 411 kts | 14° |
| 2026-05-06 09:28 | 49.91316 | 6.35269 | 17074 ft | 414 kts | 14° |
| 2026-05-06 09:28 | 49.94092 | 6.36545 | 17642 ft | 418 kts | 15° |
| 2026-05-06 09:28 | 49.96896 | 6.37794 | 18208 ft | 421 kts | 13° |
| 2026-05-06 09:28 | 49.99739 | 6.38949 | 18741 ft | 424 kts | 12° |
| 2026-05-06 09:29 | 50.02612 | 6.40014 | 19263 ft | 427 kts | 11° |
| 2026-05-06 09:29 | 50.05522 | 6.41025 | 19760 ft | 429 kts | 10° |
| 2026-05-06 09:29 | 50.08448 | 6.42053 | 20233 ft | 433 kts | 12° |
| 2026-05-06 09:29 | 50.11327 | 6.43489 | 20750 ft | 436 kts | 21° |
| 2026-05-06 09:30 | 50.14025 | 6.45693 | 21219 ft | 441 kts | 33° |
| 2026-05-06 09:30 | 50.16388 | 6.48766 | 21683 ft | 446 kts | 46° |
| 2026-05-06 09:30 | 50.18291 | 6.52591 | 22153 ft | 449 kts | 59° |
| 2026-05-06 09:30 | 50.19649 | 6.56980 | 22634 ft | 450 kts | 71° |
| 2026-05-06 09:31 | 50.20448 | 6.61712 | 23107 ft | 452 kts | 81° |
| 2026-05-06 09:31 | 50.20913 | 6.66547 | 23561 ft | 455 kts | 84° |